sensor_id;sensor_type;location;lat;lon;timestamp;P1;durP1;ratioP1;P2;durP2;ratioP2
70825;SDS011;58446;41.490;22.098;2022-11-15T00:00:08;68.83;;;39.67;;
70825;SDS011;58446;41.490;22.098;2022-11-15T00:02:35;70.18;;;40.88;;
70825;SDS011;58446;41.490;22.098;2022-11-15T00:05:00;64.75;;;38.05;;
70825;SDS011;58446;41.490;22.098;2022-11-15T00:07:26;64.33;;;38.10;;
70825;SDS011;58446;41.490;22.098;2022-11-15T00:09:52;67.93;;;41.92;;
70825;SDS011;58446;41.490;22.098;2022-11-15T00:12:17;60.30;;;37.77;;
70825;SDS011;58446;41.490;22.098;2022-11-15T00:14:43;62.28;;;38.70;;
70825;SDS011;58446;41.490;22.098;2022-11-15T00:17:09;60.93;;;37.20;;
70825;SDS011;58446;41.490;22.098;2022-11-15T00:19:34;56.53;;;33.77;;
70825;SDS011;58446;41.490;22.098;2022-11-15T00:22:00;59.90;;;33.73;;
70825;SDS011;58446;41.490;22.098;2022-11-15T00:24:26;66.38;;;37.08;;
70825;SDS011;58446;41.490;22.098;2022-11-15T00:26:51;58.23;;;35.83;;
70825;SDS011;58446;41.490;22.098;2022-11-15T00:29:17;76.68;;;43.25;;
70825;SDS011;58446;41.490;22.098;2022-11-15T00:31:43;60.43;;;36.30;;
70825;SDS011;58446;41.490;22.098;2022-11-15T00:34:09;86.00;;;45.77;;
70825;SDS011;58446;41.490;22.098;2022-11-15T00:36:35;73.85;;;41.88;;
70825;SDS011;58446;41.490;22.098;2022-11-15T00:39:03;81.00;;;45.00;;
70825;SDS011;58446;41.490;22.098;2022-11-15T00:41:30;67.22;;;39.10;;
70825;SDS011;58446;41.490;22.098;2022-11-15T00:43:56;62.15;;;38.30;;
70825;SDS011;58446;41.490;22.098;2022-11-15T00:46:22;91.73;;;48.40;;
70825;SDS011;58446;41.490;22.098;2022-11-15T00:48:48;71.13;;;42.10;;
70825;SDS011;58446;41.490;22.098;2022-11-15T00:51:13;71.77;;;41.10;;
70825;SDS011;58446;41.490;22.098;2022-11-15T00:53:39;73.10;;;42.63;;
70825;SDS011;58446;41.490;22.098;2022-11-15T00:56:05;72.23;;;39.70;;
70825;SDS011;58446;41.490;22.098;2022-11-15T00:58:31;68.70;;;40.10;;
70825;SDS011;58446;41.490;22.098;2022-11-15T01:00:56;67.40;;;38.00;;
70825;SDS011;58446;41.490;22.098;2022-11-15T01:03:37;60.25;;;34.13;;
70825;SDS011;58446;41.490;22.098;2022-11-15T01:06:04;75.63;;;42.28;;
70825;SDS011;58446;41.490;22.098;2022-11-15T01:08:30;58.90;;;35.60;;
70825;SDS011;58446;41.490;22.098;2022-11-15T01:11:05;60.20;;;35.87;;
70825;SDS011;58446;41.490;22.098;2022-11-15T01:13:34;37.78;;;22.25;;
70825;SDS011;58446;41.490;22.098;2022-11-15T01:16:11;40.72;;;25.80;;
70825;SDS011;58446;41.490;22.098;2022-11-15T01:18:39;48.85;;;29.90;;
70825;SDS011;58446;41.490;22.098;2022-11-15T01:21:07;45.97;;;28.50;;
70825;SDS011;58446;41.490;22.098;2022-11-15T01:23:36;42.40;;;26.83;;
70825;SDS011;58446;41.490;22.098;2022-11-15T01:26:03;45.60;;;26.25;;
70825;SDS011;58446;41.490;22.098;2022-11-15T01:28:31;42.30;;;26.60;;
70825;SDS011;58446;41.490;22.098;2022-11-15T01:30:58;45.17;;;26.05;;
70825;SDS011;58446;41.490;22.098;2022-11-15T01:33:25;41.50;;;24.97;;
70825;SDS011;58446;41.490;22.098;2022-11-15T01:35:51;39.03;;;24.02;;
70825;SDS011;58446;41.490;22.098;2022-11-15T01:38:17;41.53;;;24.67;;
70825;SDS011;58446;41.490;22.098;2022-11-15T01:40:42;36.60;;;23.73;;
70825;SDS011;58446;41.490;22.098;2022-11-15T01:48:50;36.15;;;21.23;;
70825;SDS011;58446;41.490;22.098;2022-11-15T01:51:18;33.67;;;21.15;;
70825;SDS011;58446;41.490;22.098;2022-11-15T01:53:46;36.70;;;21.52;;
70825;SDS011;58446;41.490;22.098;2022-11-15T01:56:18;37.45;;;24.10;;
70825;SDS011;58446;41.490;22.098;2022-11-15T01:58:48;34.67;;;20.63;;
70825;SDS011;58446;41.490;22.098;2022-11-15T02:01:14;36.33;;;22.80;;
70825;SDS011;58446;41.490;22.098;2022-11-15T02:03:46;40.17;;;23.15;;
70825;SDS011;58446;41.490;22.098;2022-11-15T02:06:24;41.40;;;26.50;;
70825;SDS011;58446;41.490;22.098;2022-11-15T02:08:50;39.90;;;24.27;;
70825;SDS011;58446;41.490;22.098;2022-11-15T02:11:16;38.13;;;23.75;;
70825;SDS011;58446;41.490;22.098;2022-11-15T02:13:42;48.00;;;28.73;;
70825;SDS011;58446;41.490;22.098;2022-11-15T02:16:11;39.63;;;25.17;;
70825;SDS011;58446;41.490;22.098;2022-11-15T02:25:13;38.25;;;23.85;;
70825;SDS011;58446;41.490;22.098;2022-11-15T02:30:52;36.15;;;21.88;;
70825;SDS011;58446;41.490;22.098;2022-11-15T02:36:00;42.63;;;25.77;;
70825;SDS011;58446;41.490;22.098;2022-11-15T02:38:51;54.60;;;28.88;;
70825;SDS011;58446;41.490;22.098;2022-11-15T02:41:59;42.07;;;23.73;;
70825;SDS011;58446;41.490;22.098;2022-11-15T02:44:43;44.75;;;25.33;;
70825;SDS011;58446;41.490;22.098;2022-11-15T02:47:12;41.30;;;25.55;;
70825;SDS011;58446;41.490;22.098;2022-11-15T02:49:49;45.70;;;25.45;;
70825;SDS011;58446;41.490;22.098;2022-11-15T02:52:18;52.95;;;29.88;;
70825;SDS011;58446;41.490;22.098;2022-11-15T02:55:00;50.40;;;25.57;;
70825;SDS011;58446;41.490;22.098;2022-11-15T03:01:21;44.88;;;24.92;;
70825;SDS011;58446;41.490;22.098;2022-11-15T03:06:36;45.17;;;24.63;;
70825;SDS011;58446;41.490;22.098;2022-11-15T03:09:28;42.50;;;23.73;;
70825;SDS011;58446;41.490;22.098;2022-11-15T03:12:17;47.55;;;24.58;;
70825;SDS011;58446;41.490;22.098;2022-11-15T03:18:00;40.70;;;23.83;;
70825;SDS011;58446;41.490;22.098;2022-11-15T03:20:32;40.38;;;23.60;;
70825;SDS011;58446;41.490;22.098;2022-11-15T03:23:01;40.13;;;22.20;;
70825;SDS011;58446;41.490;22.098;2022-11-15T03:25:36;36.33;;;21.83;;
70825;SDS011;58446;41.490;22.098;2022-11-15T03:28:07;32.75;;;18.90;;
70825;SDS011;58446;41.490;22.098;2022-11-15T03:30:36;34.22;;;20.45;;
70825;SDS011;58446;41.490;22.098;2022-11-15T03:33:03;46.20;;;18.00;;
70825;SDS011;58446;41.490;22.098;2022-11-15T03:35:31;31.90;;;19.73;;
70825;SDS011;58446;41.490;22.098;2022-11-15T03:41:04;28.27;;;17.95;;
70825;SDS011;58446;41.490;22.098;2022-11-15T03:46:17;38.78;;;17.00;;
70825;SDS011;58446;41.490;22.098;2022-11-15T03:48:56;36.40;;;17.10;;
70825;SDS011;58446;41.490;22.098;2022-11-15T03:51:30;26.67;;;16.20;;
70825;SDS011;58446;41.490;22.098;2022-11-15T03:53:56;31.27;;;17.30;;
70825;SDS011;58446;41.490;22.098;2022-11-15T03:56:22;26.87;;;17.17;;
70825;SDS011;58446;41.490;22.098;2022-11-15T03:58:48;25.87;;;16.20;;
70825;SDS011;58446;41.490;22.098;2022-11-15T04:01:13;25.53;;;15.63;;
70825;SDS011;58446;41.490;22.098;2022-11-15T04:03:39;39.30;;;22.40;;
70825;SDS011;58446;41.490;22.098;2022-11-15T04:06:05;29.73;;;18.47;;
70825;SDS011;58446;41.490;22.098;2022-11-15T04:08:31;28.92;;;17.90;;
70825;SDS011;58446;41.490;22.098;2022-11-15T04:10:56;27.77;;;18.60;;
70825;SDS011;58446;41.490;22.098;2022-11-15T04:13:22;30.07;;;18.73;;
70825;SDS011;58446;41.490;22.098;2022-11-15T04:15:48;26.48;;;18.42;;
70825;SDS011;58446;41.490;22.098;2022-11-15T04:18:13;26.73;;;17.17;;
70825;SDS011;58446;41.490;22.098;2022-11-15T04:20:39;27.60;;;17.47;;
70825;SDS011;58446;41.490;22.098;2022-11-15T04:23:23;25.45;;;16.30;;
70825;SDS011;58446;41.490;22.098;2022-11-15T04:26:27;27.52;;;17.67;;
70825;SDS011;58446;41.490;22.098;2022-11-15T04:28:52;26.50;;;16.97;;
70825;SDS011;58446;41.490;22.098;2022-11-15T04:31:36;27.40;;;16.50;;
70825;SDS011;58446;41.490;22.098;2022-11-15T04:34:02;25.17;;;16.77;;
70825;SDS011;58446;41.490;22.098;2022-11-15T04:36:28;24.77;;;17.10;;
70825;SDS011;58446;41.490;22.098;2022-11-15T04:39:12;24.75;;;17.15;;
70825;SDS011;58446;41.490;22.098;2022-11-15T04:41:38;25.77;;;16.60;;
70825;SDS011;58446;41.490;22.098;2022-11-15T04:44:03;26.03;;;15.83;;
70825;SDS011;58446;41.490;22.098;2022-11-15T04:46:29;24.15;;;16.75;;
70825;SDS011;58446;41.490;22.098;2022-11-15T04:48:55;27.37;;;17.40;;
70825;SDS011;58446;41.490;22.098;2022-11-15T04:51:21;26.77;;;17.48;;
70825;SDS011;58446;41.490;22.098;2022-11-15T04:53:46;23.60;;;16.27;;
70825;SDS011;58446;41.490;22.098;2022-11-15T04:56:12;24.58;;;16.52;;
70825;SDS011;58446;41.490;22.098;2022-11-15T04:58:38;24.47;;;16.53;;
70825;SDS011;58446;41.490;22.098;2022-11-15T05:01:13;26.10;;;17.02;;
70825;SDS011;58446;41.490;22.098;2022-11-15T05:03:40;25.52;;;16.23;;
70825;SDS011;58446;41.490;22.098;2022-11-15T05:06:27;22.93;;;15.67;;
70825;SDS011;58446;41.490;22.098;2022-11-15T05:08:53;24.35;;;15.93;;
70825;SDS011;58446;41.490;22.098;2022-11-15T05:11:19;23.58;;;15.70;;
70825;SDS011;58446;41.490;22.098;2022-11-15T05:13:45;24.77;;;15.88;;
70825;SDS011;58446;41.490;22.098;2022-11-15T05:16:11;23.07;;;15.13;;
70825;SDS011;58446;41.490;22.098;2022-11-15T05:18:37;23.35;;;15.13;;
70825;SDS011;58446;41.490;22.098;2022-11-15T05:21:08;24.02;;;15.43;;
70825;SDS011;58446;41.490;22.098;2022-11-15T05:23:36;23.77;;;16.98;;
70825;SDS011;58446;41.490;22.098;2022-11-15T05:26:02;23.20;;;15.83;;
70825;SDS011;58446;41.490;22.098;2022-11-15T05:28:30;21.27;;;14.95;;
70825;SDS011;58446;41.490;22.098;2022-11-15T05:31:02;23.50;;;15.48;;
70825;SDS011;58446;41.490;22.098;2022-11-15T05:33:30;21.27;;;15.27;;
70825;SDS011;58446;41.490;22.098;2022-11-15T05:36:00;23.00;;;14.77;;
70825;SDS011;58446;41.490;22.098;2022-11-15T05:38:32;22.20;;;14.90;;
70825;SDS011;58446;41.490;22.098;2022-11-15T05:41:01;20.88;;;14.00;;
70825;SDS011;58446;41.490;22.098;2022-11-15T05:43:29;21.58;;;15.57;;
70825;SDS011;58446;41.490;22.098;2022-11-15T05:45:56;21.85;;;14.45;;
70825;SDS011;58446;41.490;22.098;2022-11-15T05:48:22;20.88;;;14.60;;
70825;SDS011;58446;41.490;22.098;2022-11-15T05:50:48;23.70;;;14.30;;
70825;SDS011;58446;41.490;22.098;2022-11-15T05:53:15;21.83;;;14.23;;
70825;SDS011;58446;41.490;22.098;2022-11-15T05:55:43;22.58;;;14.68;;
70825;SDS011;58446;41.490;22.098;2022-11-15T05:58:10;21.43;;;13.77;;
70825;SDS011;58446;41.490;22.098;2022-11-15T06:00:36;20.52;;;13.95;;
70825;SDS011;58446;41.490;22.098;2022-11-15T06:03:02;20.33;;;14.15;;
70825;SDS011;58446;41.490;22.098;2022-11-15T06:05:28;20.00;;;13.65;;
70825;SDS011;58446;41.490;22.098;2022-11-15T06:07:56;21.17;;;14.37;;
70825;SDS011;58446;41.490;22.098;2022-11-15T06:10:23;22.90;;;13.50;;
70825;SDS011;58446;41.490;22.098;2022-11-15T06:12:59;22.13;;;13.73;;
70825;SDS011;58446;41.490;22.098;2022-11-15T06:15:26;21.53;;;15.10;;
70825;SDS011;58446;41.490;22.098;2022-11-15T06:17:52;21.17;;;14.40;;
70825;SDS011;58446;41.490;22.098;2022-11-15T06:20:22;22.80;;;15.07;;
70825;SDS011;58446;41.490;22.098;2022-11-15T06:22:56;22.77;;;15.18;;
70825;SDS011;58446;41.490;22.098;2022-11-15T06:25:25;21.88;;;14.35;;
70825;SDS011;58446;41.490;22.098;2022-11-15T06:27:55;21.97;;;14.93;;
70825;SDS011;58446;41.490;22.098;2022-11-15T06:30:21;26.60;;;15.32;;
70825;SDS011;58446;41.490;22.098;2022-11-15T06:32:48;25.00;;;17.05;;
70825;SDS011;58446;41.490;22.098;2022-11-15T06:35:14;23.30;;;15.77;;
70825;SDS011;58446;41.490;22.098;2022-11-15T06:37:40;26.23;;;16.23;;
70825;SDS011;58446;41.490;22.098;2022-11-15T06:40:07;26.73;;;15.55;;
70825;SDS011;58446;41.490;22.098;2022-11-15T06:42:33;22.85;;;14.90;;
70825;SDS011;58446;41.490;22.098;2022-11-15T06:44:59;23.98;;;14.38;;
70825;SDS011;58446;41.490;22.098;2022-11-15T06:47:25;24.17;;;15.20;;
70825;SDS011;58446;41.490;22.098;2022-11-15T06:49:50;24.45;;;16.08;;
70825;SDS011;58446;41.490;22.098;2022-11-15T06:52:16;25.77;;;15.93;;
70825;SDS011;58446;41.490;22.098;2022-11-15T06:54:44;23.15;;;14.80;;
70825;SDS011;58446;41.490;22.098;2022-11-15T06:57:09;24.33;;;15.70;;
70825;SDS011;58446;41.490;22.098;2022-11-15T06:59:35;26.08;;;14.35;;
70825;SDS011;58446;41.490;22.098;2022-11-15T07:02:01;25.55;;;14.63;;
70825;SDS011;58446;41.490;22.098;2022-11-15T07:04:27;24.03;;;16.00;;
70825;SDS011;58446;41.490;22.098;2022-11-15T07:06:53;22.83;;;14.77;;
70825;SDS011;58446;41.490;22.098;2022-11-15T07:09:18;23.37;;;14.80;;
70825;SDS011;58446;41.490;22.098;2022-11-15T07:11:44;25.80;;;16.35;;
70825;SDS011;58446;41.490;22.098;2022-11-15T07:14:09;25.37;;;15.70;;
70825;SDS011;58446;41.490;22.098;2022-11-15T07:16:36;27.20;;;16.50;;
70825;SDS011;58446;41.490;22.098;2022-11-15T07:19:02;24.77;;;16.63;;
70825;SDS011;58446;41.490;22.098;2022-11-15T07:21:28;25.95;;;17.08;;
70825;SDS011;58446;41.490;22.098;2022-11-15T07:23:53;25.40;;;16.30;;
70825;SDS011;58446;41.490;22.098;2022-11-15T07:26:19;25.17;;;16.20;;
70825;SDS011;58446;41.490;22.098;2022-11-15T07:28:45;24.33;;;15.02;;
70825;SDS011;58446;41.490;22.098;2022-11-15T07:31:10;24.43;;;15.77;;
70825;SDS011;58446;41.490;22.098;2022-11-15T07:33:36;25.23;;;15.63;;
70825;SDS011;58446;41.490;22.098;2022-11-15T07:36:03;22.40;;;15.57;;
70825;SDS011;58446;41.490;22.098;2022-11-15T07:38:31;24.27;;;15.43;;
70825;SDS011;58446;41.490;22.098;2022-11-15T07:40:58;28.83;;;16.65;;
70825;SDS011;58446;41.490;22.098;2022-11-15T07:43:24;25.13;;;16.67;;
70825;SDS011;58446;41.490;22.098;2022-11-15T07:45:52;27.30;;;17.92;;
70825;SDS011;58446;41.490;22.098;2022-11-15T07:48:18;28.03;;;17.23;;
70825;SDS011;58446;41.490;22.098;2022-11-15T07:50:44;28.40;;;17.85;;
70825;SDS011;58446;41.490;22.098;2022-11-15T07:53:10;34.67;;;20.25;;
70825;SDS011;58446;41.490;22.098;2022-11-15T07:55:36;65.10;;;36.17;;
70825;SDS011;58446;41.490;22.098;2022-11-15T07:58:06;39.17;;;20.63;;
70825;SDS011;58446;41.490;22.098;2022-11-15T08:00:33;36.38;;;18.55;;
70825;SDS011;58446;41.490;22.098;2022-11-15T08:03:10;31.45;;;17.85;;
70825;SDS011;58446;41.490;22.098;2022-11-15T08:05:38;32.33;;;17.58;;
70825;SDS011;58446;41.490;22.098;2022-11-15T08:08:05;33.13;;;19.63;;
70825;SDS011;58446;41.490;22.098;2022-11-15T08:10:32;32.13;;;19.63;;
70825;SDS011;58446;41.490;22.098;2022-11-15T08:12:59;35.42;;;19.55;;
70825;SDS011;58446;41.490;22.098;2022-11-15T08:15:29;32.60;;;18.38;;
70825;SDS011;58446;41.490;22.098;2022-11-15T08:17:56;31.58;;;18.23;;
70825;SDS011;58446;41.490;22.098;2022-11-15T08:20:23;29.13;;;17.80;;
70825;SDS011;58446;41.490;22.098;2022-11-15T08:22:50;29.77;;;16.92;;
70825;SDS011;58446;41.490;22.098;2022-11-15T08:25:16;29.02;;;18.15;;
70825;SDS011;58446;41.490;22.098;2022-11-15T08:27:42;29.73;;;18.60;;
70825;SDS011;58446;41.490;22.098;2022-11-15T08:30:08;29.27;;;18.33;;
70825;SDS011;58446;41.490;22.098;2022-11-15T08:32:34;32.03;;;18.17;;
70825;SDS011;58446;41.490;22.098;2022-11-15T08:35:00;28.15;;;17.63;;
70825;SDS011;58446;41.490;22.098;2022-11-15T08:37:25;29.30;;;17.73;;
70825;SDS011;58446;41.490;22.098;2022-11-15T08:39:51;28.77;;;17.73;;
70825;SDS011;58446;41.490;22.098;2022-11-15T08:42:17;28.77;;;16.87;;
70825;SDS011;58446;41.490;22.098;2022-11-15T08:44:42;29.83;;;17.92;;
70825;SDS011;58446;41.490;22.098;2022-11-15T08:47:10;28.40;;;17.90;;
70825;SDS011;58446;41.490;22.098;2022-11-15T08:49:37;30.15;;;16.70;;
70825;SDS011;58446;41.490;22.098;2022-11-15T08:52:03;31.63;;;18.25;;
70825;SDS011;58446;41.490;22.098;2022-11-15T08:54:29;29.67;;;18.30;;
70825;SDS011;58446;41.490;22.098;2022-11-15T08:56:54;35.55;;;19.73;;
70825;SDS011;58446;41.490;22.098;2022-11-15T08:59:20;29.03;;;18.13;;
70825;SDS011;58446;41.490;22.098;2022-11-15T09:01:46;34.53;;;19.33;;
70825;SDS011;58446;41.490;22.098;2022-11-15T09:04:11;32.90;;;18.70;;
70825;SDS011;58446;41.490;22.098;2022-11-15T09:06:37;48.10;;;26.90;;
70825;SDS011;58446;41.490;22.098;2022-11-15T09:09:03;34.30;;;20.77;;
70825;SDS011;58446;41.490;22.098;2022-11-15T09:11:28;29.92;;;17.27;;
70825;SDS011;58446;41.490;22.098;2022-11-15T09:13:54;32.00;;;18.03;;
70825;SDS011;58446;41.490;22.098;2022-11-15T09:16:20;36.10;;;20.42;;
70825;SDS011;58446;41.490;22.098;2022-11-15T09:18:46;31.43;;;17.83;;
70825;SDS011;58446;41.490;22.098;2022-11-15T09:21:12;31.63;;;17.90;;
70825;SDS011;58446;41.490;22.098;2022-11-15T09:23:38;29.90;;;17.63;;
70825;SDS011;58446;41.490;22.098;2022-11-15T09:26:04;32.60;;;19.17;;
70825;SDS011;58446;41.490;22.098;2022-11-15T09:28:30;32.80;;;19.03;;
70825;SDS011;58446;41.490;22.098;2022-11-15T09:30:58;32.58;;;18.63;;
70825;SDS011;58446;41.490;22.098;2022-11-15T09:33:24;29.65;;;17.98;;
70825;SDS011;58446;41.490;22.098;2022-11-15T09:35:51;34.50;;;20.50;;
70825;SDS011;58446;41.490;22.098;2022-11-15T09:38:16;32.37;;;19.53;;
70825;SDS011;58446;41.490;22.098;2022-11-15T09:40:42;33.10;;;20.55;;
70825;SDS011;58446;41.490;22.098;2022-11-15T09:45:57;30.83;;;17.97;;
70825;SDS011;58446;41.490;22.098;2022-11-15T09:51:17;36.53;;;20.92;;
70825;SDS011;58446;41.490;22.098;2022-11-15T09:53:51;36.50;;;21.13;;
70825;SDS011;58446;41.490;22.098;2022-11-15T09:56:28;31.90;;;19.60;;
70825;SDS011;58446;41.490;22.098;2022-11-15T10:04:36;35.90;;;21.45;;
70825;SDS011;58446;41.490;22.098;2022-11-15T10:07:10;37.30;;;22.15;;
70825;SDS011;58446;41.490;22.098;2022-11-15T10:10:24;39.22;;;25.85;;
70825;SDS011;58446;41.490;22.098;2022-11-15T10:12:28;41.80;;;23.67;;
70825;SDS011;58446;41.490;22.098;2022-11-15T10:15:02;34.85;;;20.70;;
70825;SDS011;58446;41.490;22.098;2022-11-15T10:22:50;34.55;;;21.02;;
70825;SDS011;58446;41.490;22.098;2022-11-15T10:27:50;48.13;;;27.38;;
70825;SDS011;58446;41.490;22.098;2022-11-15T10:30:19;37.03;;;22.67;;
70825;SDS011;58446;41.490;22.098;2022-11-15T10:32:46;37.53;;;20.60;;
70825;SDS011;58446;41.490;22.098;2022-11-15T10:35:21;35.88;;;22.02;;
70825;SDS011;58446;41.490;22.098;2022-11-15T10:37:56;32.93;;;20.37;;
70825;SDS011;58446;41.490;22.098;2022-11-15T10:40:31;36.42;;;21.38;;
70825;SDS011;58446;41.490;22.098;2022-11-15T10:43:05;30.65;;;19.38;;
70825;SDS011;58446;41.490;22.098;2022-11-15T10:45:37;30.35;;;18.88;;
70825;SDS011;58446;41.490;22.098;2022-11-15T10:50:42;28.80;;;18.50;;
70825;SDS011;58446;41.490;22.098;2022-11-15T10:55:50;34.90;;;20.35;;
70825;SDS011;58446;41.490;22.098;2022-11-15T10:58:26;35.65;;;21.20;;
70825;SDS011;58446;41.490;22.098;2022-11-15T11:01:19;37.58;;;22.65;;
70825;SDS011;58446;41.490;22.098;2022-11-15T11:04:06;38.60;;;22.97;;
70825;SDS011;58446;41.490;22.098;2022-11-15T11:06:47;35.72;;;21.48;;
70825;SDS011;58446;41.490;22.098;2022-11-15T11:12:01;36.30;;;21.48;;
70825;SDS011;58446;41.490;22.098;2022-11-15T11:14:29;35.22;;;19.98;;
70825;SDS011;58446;41.490;22.098;2022-11-15T11:20:02;34.90;;;19.90;;
70825;SDS011;58446;41.490;22.098;2022-11-15T11:38:44;43.97;;;24.67;;
70825;SDS011;58446;41.490;22.098;2022-11-15T11:44:07;29.43;;;17.73;;
70825;SDS011;58446;41.490;22.098;2022-11-15T11:46:48;31.35;;;18.05;;
70825;SDS011;58446;41.490;22.098;2022-11-15T11:49:21;28.13;;;16.95;;
70825;SDS011;58446;41.490;22.098;2022-11-15T11:51:54;28.65;;;18.88;;
70825;SDS011;58446;41.490;22.098;2022-11-15T11:54:42;34.35;;;18.95;;
70825;SDS011;58446;41.490;22.098;2022-11-15T11:57:46;29.03;;;17.33;;
70825;SDS011;58446;41.490;22.098;2022-11-15T12:00:24;27.55;;;16.35;;
70825;SDS011;58446;41.490;22.098;2022-11-15T12:06:17;27.45;;;17.23;;
70825;SDS011;58446;41.490;22.098;2022-11-15T12:08:52;26.77;;;16.98;;
70825;SDS011;58446;41.490;22.098;2022-11-15T12:14:05;27.73;;;16.17;;
70825;SDS011;58446;41.490;22.098;2022-11-15T12:16:42;30.73;;;18.52;;
70825;SDS011;58446;41.490;22.098;2022-11-15T12:19:08;28.27;;;16.20;;
70825;SDS011;58446;41.490;22.098;2022-11-15T12:24:27;25.02;;;14.82;;
70825;SDS011;58446;41.490;22.098;2022-11-15T12:26:58;23.88;;;14.57;;
70825;SDS011;58446;41.490;22.098;2022-11-15T12:29:37;25.55;;;15.88;;
70825;SDS011;58446;41.490;22.098;2022-11-15T12:32:14;28.20;;;15.63;;
70825;SDS011;58446;41.490;22.098;2022-11-15T12:34:51;25.65;;;16.02;;
70825;SDS011;58446;41.490;22.098;2022-11-15T12:42:36;25.25;;;14.95;;
70825;SDS011;58446;41.490;22.098;2022-11-15T12:58:44;22.80;;;14.87;;
70825;SDS011;58446;41.490;22.098;2022-11-15T13:06:47;25.55;;;15.95;;
70825;SDS011;58446;41.490;22.098;2022-11-15T13:12:09;23.27;;;15.30;;
70825;SDS011;58446;41.490;22.098;2022-11-15T13:17:29;24.65;;;14.60;;
70825;SDS011;58446;41.490;22.098;2022-11-15T13:22:49;32.95;;;20.40;;
70825;SDS011;58446;41.490;22.098;2022-11-15T13:31:01;27.80;;;17.13;;
70825;SDS011;58446;41.490;22.098;2022-11-15T13:33:39;25.85;;;16.52;;
70825;SDS011;58446;41.490;22.098;2022-11-15T13:36:09;27.90;;;18.30;;
70825;SDS011;58446;41.490;22.098;2022-11-15T13:38:39;28.40;;;17.43;;
70825;SDS011;58446;41.490;22.098;2022-11-15T13:41:45;31.02;;;19.88;;
70825;SDS011;58446;41.490;22.098;2022-11-15T13:43:59;29.55;;;19.63;;
70825;SDS011;58446;41.490;22.098;2022-11-15T13:46:30;31.73;;;20.95;;
70825;SDS011;58446;41.490;22.098;2022-11-15T13:48:59;27.15;;;17.67;;
70825;SDS011;58446;41.490;22.098;2022-11-15T13:51:37;26.47;;;15.97;;
70825;SDS011;58446;41.490;22.098;2022-11-15T13:56:47;25.67;;;15.95;;
70825;SDS011;58446;41.490;22.098;2022-11-15T13:59:24;26.58;;;16.25;;
70825;SDS011;58446;41.490;22.098;2022-11-15T14:01:52;44.25;;;25.25;;
70825;SDS011;58446;41.490;22.098;2022-11-15T14:04:21;27.83;;;17.17;;
70825;SDS011;58446;41.490;22.098;2022-11-15T14:06:53;27.60;;;16.23;;
70825;SDS011;58446;41.490;22.098;2022-11-15T14:09:34;26.15;;;16.75;;
70825;SDS011;58446;41.490;22.098;2022-11-15T14:15:31;30.83;;;20.45;;
70825;SDS011;58446;41.490;22.098;2022-11-15T14:17:59;36.03;;;22.13;;
70825;SDS011;58446;41.490;22.098;2022-11-15T14:22:54;31.20;;;19.48;;
70825;SDS011;58446;41.490;22.098;2022-11-15T14:25:25;29.90;;;20.50;;
70825;SDS011;58446;41.490;22.098;2022-11-15T14:30:39;50.00;;;29.67;;
70825;SDS011;58446;41.490;22.098;2022-11-15T14:35:50;39.47;;;25.67;;
70825;SDS011;58446;41.490;22.098;2022-11-15T14:38:17;42.80;;;27.13;;
70825;SDS011;58446;41.490;22.098;2022-11-15T14:40:43;52.97;;;30.13;;
70825;SDS011;58446;41.490;22.098;2022-11-15T14:43:10;47.33;;;30.58;;
70825;SDS011;58446;41.490;22.098;2022-11-15T14:45:37;39.28;;;24.10;;
70825;SDS011;58446;41.490;22.098;2022-11-15T14:48:03;64.85;;;32.15;;
70825;SDS011;58446;41.490;22.098;2022-11-15T14:50:29;83.33;;;37.90;;
70825;SDS011;58446;41.490;22.098;2022-11-15T14:52:55;72.90;;;44.35;;
70825;SDS011;58446;41.490;22.098;2022-11-15T14:55:22;43.58;;;29.55;;
70825;SDS011;58446;41.490;22.098;2022-11-15T14:58:01;55.53;;;35.83;;
70825;SDS011;58446;41.490;22.098;2022-11-15T15:00:28;63.08;;;37.67;;
70825;SDS011;58446;41.490;22.098;2022-11-15T15:02:55;57.38;;;35.95;;
70825;SDS011;58446;41.490;22.098;2022-11-15T15:05:22;56.00;;;33.97;;
70825;SDS011;58446;41.490;22.098;2022-11-15T15:07:50;101.93;;;51.58;;
70825;SDS011;58446;41.490;22.098;2022-11-15T15:10:19;48.77;;;29.50;;
70825;SDS011;58446;41.490;22.098;2022-11-15T15:12:46;55.03;;;34.67;;
70825;SDS011;58446;41.490;22.098;2022-11-15T15:15:21;75.50;;;43.45;;
70825;SDS011;58446;41.490;22.098;2022-11-15T15:17:53;53.72;;;33.67;;
70825;SDS011;58446;41.490;22.098;2022-11-15T15:20:20;44.35;;;26.38;;
70825;SDS011;58446;41.490;22.098;2022-11-15T15:22:45;72.73;;;37.67;;
70825;SDS011;58446;41.490;22.098;2022-11-15T15:25:20;51.53;;;35.67;;
70825;SDS011;58446;41.490;22.098;2022-11-15T15:27:57;53.23;;;37.30;;
70825;SDS011;58446;41.490;22.098;2022-11-15T15:30:26;58.20;;;36.55;;
70825;SDS011;58446;41.490;22.098;2022-11-15T15:32:53;49.20;;;31.30;;
70825;SDS011;58446;41.490;22.098;2022-11-15T15:35:19;42.58;;;28.50;;
70825;SDS011;58446;41.490;22.098;2022-11-15T15:37:46;53.72;;;38.45;;
70825;SDS011;58446;41.490;22.098;2022-11-15T15:40:17;56.17;;;34.83;;
70825;SDS011;58446;41.490;22.098;2022-11-15T15:42:47;61.78;;;35.90;;
70825;SDS011;58446;41.490;22.098;2022-11-15T15:45:14;90.82;;;45.97;;
70825;SDS011;58446;41.490;22.098;2022-11-15T15:47:41;65.53;;;39.65;;
70825;SDS011;58446;41.490;22.098;2022-11-15T15:50:16;47.95;;;30.20;;
70825;SDS011;58446;41.490;22.098;2022-11-15T15:52:47;57.50;;;35.00;;
70825;SDS011;58446;41.490;22.098;2022-11-15T15:55:13;93.57;;;47.30;;
70825;SDS011;58446;41.490;22.098;2022-11-15T15:57:39;67.75;;;42.20;;
70825;SDS011;58446;41.490;22.098;2022-11-15T16:00:04;63.80;;;40.57;;
70825;SDS011;58446;41.490;22.098;2022-11-15T16:02:31;105.95;;;58.20;;
70825;SDS011;58446;41.490;22.098;2022-11-15T16:04:56;97.88;;;56.90;;
70825;SDS011;58446;41.490;22.098;2022-11-15T16:07:22;98.50;;;56.67;;
70825;SDS011;58446;41.490;22.098;2022-11-15T16:09:53;185.15;;;108.50;;
70825;SDS011;58446;41.490;22.098;2022-11-15T16:12:34;166.88;;;99.22;;
70825;SDS011;58446;41.490;22.098;2022-11-15T16:15:00;196.60;;;115.47;;
70825;SDS011;58446;41.490;22.098;2022-11-15T16:17:30;222.83;;;125.23;;
70825;SDS011;58446;41.490;22.098;2022-11-15T16:19:58;148.90;;;87.63;;
70825;SDS011;58446;41.490;22.098;2022-11-15T16:22:24;142.88;;;82.40;;
70825;SDS011;58446;41.490;22.098;2022-11-15T16:24:50;184.87;;;102.97;;
70825;SDS011;58446;41.490;22.098;2022-11-15T16:27:17;135.68;;;80.97;;
70825;SDS011;58446;41.490;22.098;2022-11-15T16:29:45;159.00;;;89.80;;
70825;SDS011;58446;41.490;22.098;2022-11-15T16:32:11;154.07;;;88.35;;
70825;SDS011;58446;41.490;22.098;2022-11-15T16:34:37;130.07;;;77.60;;
70825;SDS011;58446;41.490;22.098;2022-11-15T16:37:03;129.85;;;77.60;;
70825;SDS011;58446;41.490;22.098;2022-11-15T16:39:31;118.72;;;72.88;;
70825;SDS011;58446;41.490;22.098;2022-11-15T16:41:57;118.53;;;73.47;;
70825;SDS011;58446;41.490;22.098;2022-11-15T16:44:23;114.60;;;70.90;;